createdAt,value
2022-11-22T00:01:07.396Z,24.48
2022-11-22T00:03:34.833Z,23.60
2022-11-22T00:06:02.077Z,22.58
2022-11-22T00:08:29.327Z,24.40
2022-11-22T00:10:56.519Z,22.60
2022-11-22T00:13:23.710Z,21.33
2022-11-22T00:16:02.076Z,23.65
2022-11-22T00:18:30.514Z,22.40
2022-11-22T00:20:57.670Z,22.17
2022-11-22T00:23:24.755Z,22.85
2022-11-22T00:25:51.929Z,21.20
2022-11-22T00:28:19.464Z,22.25
2022-11-22T00:30:46.851Z,20.35
2022-11-22T00:33:14.378Z,20.00
2022-11-22T00:35:41.868Z,20.75
2022-11-22T00:38:09.147Z,20.35
2022-11-22T00:40:36.679Z,21.27
2022-11-22T00:43:04.141Z,20.75
2022-11-22T00:45:31.376Z,20.23
2022-11-22T00:47:58.820Z,19.80
2022-11-22T00:50:25.952Z,19.75
2022-11-22T00:52:53.189Z,19.45
2022-11-22T00:55:20.587Z,19.73
2022-11-22T00:57:48.095Z,21.20
2022-11-22T01:00:16.269Z,20.20
2022-11-22T01:02:43.834Z,19.63
2022-11-22T01:05:11.303Z,19.80
2022-11-22T01:07:38.884Z,18.25
2022-11-22T01:10:06.811Z,18.92
2022-11-22T01:12:34.053Z,19.30
2022-11-22T01:15:02.849Z,19.25
2022-11-22T01:17:30.260Z,19.38
2022-11-22T01:19:57.467Z,17.77
2022-11-22T01:22:24.682Z,17.17
2022-11-22T01:24:57.874Z,18.38
2022-11-22T01:27:25.395Z,17.98
2022-11-22T01:29:53.106Z,19.15
2022-11-22T01:32:21.143Z,17.55
2022-11-22T01:34:48.394Z,17.60
2022-11-22T01:37:15.616Z,17.25
2022-11-22T01:39:43.158Z,17.65
2022-11-22T01:42:14.017Z,16.83
2022-11-22T01:44:42.920Z,16.25
2022-11-22T01:47:10.096Z,17.65
2022-11-22T01:49:55.287Z,17.88
2022-11-22T01:52:25.730Z,17.05
2022-11-22T01:55:07.275Z,16.90
2022-11-22T01:57:37.838Z,17.45
2022-11-22T02:00:09.316Z,17.50
2022-11-22T02:02:55.442Z,16.38
2022-11-22T02:05:26.525Z,17.63
2022-11-22T02:08:07.348Z,16.02
2022-11-22T02:10:37.603Z,16.70
2022-11-22T02:13:06.776Z,16.05
2022-11-22T02:15:35.865Z,16.98
2022-11-22T02:18:03.305Z,17.25
2022-11-22T02:20:31.143Z,17.65
2022-11-22T02:23:23.316Z,16.58
2022-11-22T02:25:58.398Z,15.73
2022-11-22T02:28:29.070Z,17.08
2022-11-22T02:30:59.430Z,17.35
2022-11-22T02:33:29.318Z,17.23
2022-11-22T02:36:01.568Z,17.25
2022-11-22T02:38:51.599Z,17.67
2022-11-22T02:41:21.065Z,18.63
2022-11-22T02:43:49.992Z,17.08
2022-11-22T02:46:25.624Z,17.35
2022-11-22T02:48:55.620Z,17.08
2022-11-22T02:51:24.463Z,17.85
2022-11-22T02:53:54.878Z,16.73
2022-11-22T02:56:23.886Z,17.65
2022-11-22T02:58:51.736Z,17.10
2022-11-22T03:01:19.720Z,16.83
2022-11-22T03:03:47.416Z,17.63
2022-11-22T03:06:15.060Z,19.23
2022-11-22T03:08:44.455Z,18.67
2022-11-22T03:11:12.136Z,20.27
2022-11-22T03:13:39.820Z,19.52
2022-11-22T03:16:10.839Z,18.45
2022-11-22T03:18:39.078Z,17.98
2022-11-22T03:21:13.578Z,19.88
2022-11-22T03:23:41.584Z,18.42
2022-11-22T03:26:10.876Z,18.00
2022-11-22T03:28:39.684Z,18.58
2022-11-22T03:31:11.780Z,17.80
2022-11-22T03:33:40.419Z,18.42
2022-11-22T03:36:08.704Z,19.40
2022-11-22T03:38:40.413Z,18.67
2022-11-22T03:41:08.367Z,17.42
2022-11-22T03:43:37.836Z,18.30
2022-11-22T03:46:15.821Z,17.88
2022-11-22T03:48:44.077Z,19.15
2022-11-22T03:51:14.747Z,19.30
2022-11-22T03:53:57.463Z,17.88
2022-11-22T03:56:27.014Z,17.40
2022-11-22T03:58:55.137Z,19.20
2022-11-22T04:01:25.571Z,18.30
2022-11-22T04:03:53.090Z,17.20
2022-11-22T04:06:20.689Z,19.13
2022-11-22T04:08:48.966Z,17.00
2022-11-22T04:11:16.859Z,19.95
2022-11-22T04:14:02.604Z,16.88
2022-11-22T04:16:29.801Z,17.35
2022-11-22T04:18:56.965Z,18.17
2022-11-22T04:21:36.021Z,17.85
2022-11-22T04:24:29.780Z,17.90
2022-11-22T04:26:57.951Z,17.00
2022-11-22T04:29:25.723Z,18.05
2022-11-22T04:32:11.983Z,16.10
2022-11-22T04:34:39.202Z,18.95
2022-11-22T04:37:06.760Z,19.70
2022-11-22T04:39:34.289Z,18.75
2022-11-22T04:42:20.037Z,16.42
2022-11-22T04:44:47.247Z,17.67
2022-11-22T04:47:36.861Z,18.40
2022-11-22T04:50:27.210Z,19.15
2022-11-22T04:52:57.705Z,18.25
2022-11-22T04:55:25.229Z,19.42
2022-11-22T04:57:57.737Z,17.48
2022-11-22T05:00:28.633Z,18.45
2022-11-22T05:02:56.729Z,16.73
2022-11-22T05:05:25.050Z,18.13
2022-11-22T05:07:52.468Z,17.00
2022-11-22T05:10:26.081Z,18.13
2022-11-22T05:12:55.012Z,18.15
2022-11-22T05:15:22.263Z,17.52
2022-11-22T05:17:49.479Z,17.23
2022-11-22T05:20:17.634Z,17.65
2022-11-22T05:23:03.129Z,17.65
2022-11-22T05:25:30.464Z,18.83
2022-11-22T05:27:57.729Z,17.40
2022-11-22T05:30:24.922Z,18.45
2022-11-22T05:32:52.153Z,17.80
2022-11-22T05:35:19.429Z,19.00
2022-11-22T05:37:46.704Z,17.65
2022-11-22T05:40:14.090Z,16.27
2022-11-22T05:42:41.948Z,17.65
2022-11-22T05:45:09.685Z,18.25
2022-11-22T05:47:37.012Z,16.38
2022-11-22T05:50:04.896Z,16.02
2022-11-22T05:52:32.170Z,17.88
2022-11-22T05:54:59.430Z,16.27
2022-11-22T05:57:26.916Z,15.88
2022-11-22T05:59:54.523Z,16.25
2022-11-22T06:02:21.825Z,16.23
2022-11-22T06:04:49.163Z,16.10
2022-11-22T06:07:16.748Z,15.23
2022-11-22T06:09:44.169Z,16.90
2022-11-22T06:12:11.494Z,16.95
2022-11-22T06:14:43.200Z,16.65
2022-11-22T06:17:10.926Z,17.73
2022-11-22T06:19:38.176Z,16.88
2022-11-22T06:22:06.239Z,17.23
2022-11-22T06:24:33.579Z,17.05
2022-11-22T06:27:00.950Z,17.30
2022-11-22T06:29:29.759Z,17.40
2022-11-22T06:32:01.987Z,15.20
2022-11-22T06:34:31.267Z,14.02
2022-11-22T06:36:58.485Z,14.70
2022-11-22T06:39:25.732Z,14.65
2022-11-22T06:41:52.904Z,13.73
2022-11-22T06:44:20.109Z,12.80
2022-11-22T06:46:47.352Z,15.88
2022-11-22T06:49:15.025Z,13.15
2022-11-22T06:51:42.409Z,13.60
2022-11-22T06:54:13.021Z,14.95
2022-11-22T06:56:41.494Z,15.25
2022-11-22T06:59:09.271Z,14.63
2022-11-22T07:01:37.604Z,14.90
2022-11-22T07:04:05.645Z,13.70
2022-11-22T07:06:35.332Z,12.70
2022-11-22T07:09:05.234Z,14.20
2022-11-22T07:11:33.217Z,13.25
2022-11-22T07:14:07.609Z,13.13
2022-11-22T07:16:37.545Z,12.60
2022-11-22T07:19:06.268Z,12.55
2022-11-22T07:21:33.536Z,13.30
2022-11-22T07:24:00.841Z,14.05
2022-11-22T07:26:28.781Z,13.15
2022-11-22T07:28:57.720Z,12.30
2022-11-22T07:31:26.198Z,11.20
2022-11-22T07:33:55.255Z,12.18
2022-11-22T07:36:22.690Z,12.10
2022-11-22T07:38:50.744Z,13.10
2022-11-22T07:41:19.680Z,10.77
2022-11-22T07:43:47.217Z,11.52
2022-11-22T07:46:31.663Z,11.23
2022-11-22T07:49:01.154Z,10.77
2022-11-22T07:51:29.070Z,9.85
2022-11-22T07:53:57.005Z,9.95
2022-11-22T07:56:24.546Z,9.38
2022-11-22T07:58:52.495Z,8.73
2022-11-22T08:01:21.780Z,8.40
2022-11-22T08:03:49.119Z,9.98
2022-11-22T08:06:16.812Z,8.65
2022-11-22T08:08:44.563Z,7.70
2022-11-22T08:11:12.640Z,7.38
2022-11-22T08:13:40.947Z,7.53
2022-11-22T08:16:14.162Z,7.55
2022-11-22T08:18:45.418Z,7.63
2022-11-22T08:21:14.301Z,8.93
2022-11-22T08:23:42.913Z,7.25
2022-11-22T08:26:12.774Z,7.05
2022-11-22T08:28:41.336Z,7.25
2022-11-22T08:31:14.547Z,6.40
2022-11-22T08:33:41.988Z,6.28
2022-11-22T08:36:09.849Z,7.03
2022-11-22T08:38:37.577Z,6.65
2022-11-22T08:41:06.674Z,6.85
2022-11-22T08:43:34.031Z,7.80
2022-11-22T08:46:02.276Z,6.70
2022-11-22T08:48:31.884Z,5.90
2022-11-22T08:51:10.713Z,6.00
2022-11-22T08:53:43.435Z,6.18
2022-11-22T08:56:15.514Z,5.32
2022-11-22T08:58:43.380Z,5.33
2022-11-22T09:01:13.789Z,5.57
2022-11-22T09:03:41.901Z,5.40
2022-11-22T09:11:48.930Z,4.80
2022-11-22T09:14:16.186Z,5.15
2022-11-22T09:16:43.479Z,4.82
2022-11-22T09:19:10.896Z,5.88
2022-11-22T09:21:38.236Z,4.68
2022-11-22T09:24:05.844Z,5.10
2022-11-22T09:26:33.251Z,4.95
2022-11-22T09:29:00.823Z,5.80
2022-11-22T09:31:28.048Z,4.93
2022-11-22T09:33:55.243Z,5.68
2022-11-22T09:36:26.353Z,5.50
2022-11-22T09:38:54.582Z,4.80
2022-11-22T09:41:46.274Z,3.40
2022-11-22T09:44:45.119Z,3.75
2022-11-22T09:47:56.165Z,3.72
2022-11-22T09:50:26.097Z,3.80
2022-11-22T09:53:03.104Z,3.92
2022-11-22T09:55:38.299Z,4.00
2022-11-22T09:58:27.323Z,3.95
2022-11-22T10:01:17.053Z,3.80
2022-11-22T10:04:08.323Z,4.35
2022-11-22T10:06:40.863Z,3.65
2022-11-22T10:09:23.405Z,3.40
2022-11-22T10:11:57.584Z,3.55
2022-11-22T10:14:50.681Z,3.53
2022-11-22T10:17:44.448Z,4.18
2022-11-22T10:20:19.021Z,3.67
2022-11-22T10:22:47.693Z,3.72
2022-11-22T10:25:27.630Z,3.15
2022-11-22T10:28:01.041Z,3.78
2022-11-22T10:30:35.901Z,3.85
2022-11-22T10:33:11.982Z,3.65
2022-11-22T10:36:18.245Z,3.33
2022-11-22T10:39:20.641Z,3.83
2022-11-22T10:42:14.019Z,3.20
2022-11-22T10:44:44.127Z,3.17
2022-11-22T10:47:42.654Z,3.67
2022-11-22T10:50:28.170Z,3.10
2022-11-22T10:53:14.910Z,2.80
2022-11-22T10:56:00.619Z,3.25
2022-11-22T10:58:49.793Z,3.58
2022-11-22T11:01:32.605Z,3.63
2022-11-22T11:04:01.579Z,2.85
2022-11-22T11:07:10.550Z,3.63
2022-11-22T11:12:51.947Z,2.80
2022-11-22T11:15:34.252Z,2.60
2022-11-22T11:18:05.460Z,3.08
2022-11-22T11:20:41.597Z,2.60
2022-11-22T11:23:15.266Z,2.72
2022-11-22T11:25:45.820Z,3.28
2022-11-22T11:28:28.111Z,2.67
2022-11-22T11:31:02.573Z,3.13
2022-11-22T11:33:32.203Z,2.85
2022-11-22T11:36:19.148Z,2.72
2022-11-22T11:38:50.774Z,2.55
2022-11-22T11:41:24.289Z,3.10
2022-11-22T11:43:53.932Z,2.83
2022-11-22T11:46:28.837Z,2.42
2022-11-22T11:49:17.767Z,2.65
2022-11-22T11:51:55.000Z,3.45
2022-11-22T11:54:39.784Z,2.60
2022-11-22T11:57:45.821Z,3.35
2022-11-22T12:00:40.043Z,3.00
2022-11-22T12:03:12.179Z,2.55
2022-11-22T12:05:39.548Z,3.13
2022-11-22T12:08:28.896Z,2.70
2022-11-22T12:11:06.517Z,2.78
2022-11-22T12:14:12.300Z,2.38
2022-11-22T12:16:37.977Z,2.20
2022-11-22T12:19:41.185Z,2.40
2022-11-22T12:25:33.433Z,2.45
2022-11-22T12:28:20.987Z,2.75
2022-11-22T12:31:03.138Z,2.95
2022-11-22T12:33:40.882Z,2.28
2022-11-22T12:36:46.149Z,2.00
2022-11-22T12:39:18.718Z,2.90
2022-11-22T12:41:48.902Z,2.28
2022-11-22T12:44:20.496Z,2.13
2022-11-22T12:47:00.259Z,2.33
2022-11-22T12:48:23.196Z,2.63
2022-11-22T12:49:53.540Z,2.25
2022-11-22T12:52:42.480Z,2.10
2022-11-22T12:55:23.998Z,2.28
2022-11-22T12:58:07.463Z,2.65
2022-11-22T13:00:47.300Z,2.03
2022-11-22T13:03:21.233Z,1.50
2022-11-22T13:05:56.892Z,2.38
2022-11-22T13:08:54.769Z,1.98
2022-11-22T13:11:49.331Z,2.53
2022-11-22T13:14:22.419Z,1.83
2022-11-22T13:16:51.518Z,2.70
2022-11-22T13:19:23.534Z,1.75
2022-11-22T13:22:20.026Z,1.90
2022-11-22T13:24:54.922Z,2.03
2022-11-22T13:27:30.953Z,2.45
2022-11-22T13:30:01.101Z,1.83
2022-11-22T13:32:36.340Z,1.73
2022-11-22T13:35:11.997Z,1.55
2022-11-22T13:37:45.511Z,1.95
2022-11-22T13:40:15.877Z,1.60
2022-11-22T13:42:43.314Z,1.85
2022-11-22T13:45:20.919Z,1.85
2022-11-22T13:47:48.514Z,1.85
2022-11-22T13:50:40.624Z,2.50
2022-11-22T13:53:20.207Z,1.85
2022-11-22T13:55:47.595Z,2.08
2022-11-22T13:58:26.970Z,1.70
2022-11-22T14:00:56.627Z,2.13
2022-11-22T14:03:36.702Z,1.40
2022-11-22T14:06:29.456Z,2.10
2022-11-22T14:09:38.370Z,2.00
2022-11-22T14:12:11.340Z,1.90
2022-11-22T14:17:42.647Z,1.40
2022-11-22T14:20:28.401Z,2.25
2022-11-22T14:23:01.450Z,2.60
2022-11-22T14:25:43.650Z,2.08
2022-11-22T14:28:52.015Z,1.58
2022-11-22T14:31:31.437Z,1.35
2022-11-22T14:34:17.343Z,2.08
2022-11-22T14:36:46.427Z,1.38
2022-11-22T14:39:44.841Z,1.52
2022-11-22T14:42:41.817Z,1.30
2022-11-22T14:45:12.053Z,1.90
2022-11-22T14:47:53.027Z,2.22
2022-11-22T14:50:26.279Z,1.52
2022-11-22T14:52:57.348Z,1.20
2022-11-22T14:55:36.286Z,2.00
2022-11-22T14:58:14.506Z,1.60
2022-11-22T15:01:12.153Z,1.50
2022-11-22T15:09:14.913Z,1.42
2022-11-22T15:09:17.239Z,1.27
2022-11-22T15:09:53.282Z,1.50
2022-11-22T15:12:53.636Z,1.23
2022-11-22T15:57:27.509Z,1.52
2022-11-22T15:59:55.771Z,1.25
2022-11-22T16:02:25.732Z,1.30
2022-11-22T16:06:05.999Z,1.55
2022-11-22T16:07:49.128Z,1.20
2022-11-22T16:10:23.215Z,1.00
2022-11-22T16:12:51.968Z,0.90
2022-11-22T16:15:30.551Z,1.42
2022-11-22T16:18:23.735Z,1.20
2022-11-22T16:21:04.111Z,1.20
2022-11-22T16:23:37.423Z,1.10
2022-11-22T16:26:29.307Z,1.25
2022-11-22T16:29:11.366Z,1.30
2022-11-22T16:31:40.151Z,1.27
2022-11-22T16:34:16.251Z,1.20
2022-11-22T16:36:43.739Z,1.80
2022-11-22T16:39:10.881Z,1.02
2022-11-22T16:41:38.097Z,1.00
2022-11-22T16:44:12.779Z,1.10
2022-11-22T16:46:41.051Z,1.38
2022-11-22T16:49:34.551Z,1.30
2022-11-22T16:52:02.005Z,1.42
2022-11-22T16:54:32.217Z,1.42
2022-11-22T16:56:59.417Z,1.60
2022-11-22T16:59:26.581Z,1.50
2022-11-22T17:01:53.879Z,1.77
2022-11-22T17:04:26.286Z,2.28
2022-11-22T17:06:53.891Z,2.40
2022-11-22T17:09:21.211Z,1.30
2022-11-22T17:11:48.388Z,1.90
2022-11-22T17:14:17.017Z,1.40
2022-11-22T17:16:45.931Z,1.77
2022-11-22T17:22:01.079Z,1.77
2022-11-22T17:24:29.275Z,1.60
2022-11-22T17:26:57.001Z,1.50
2022-11-22T17:32:15.023Z,1.83
2022-11-22T17:34:42.157Z,1.77
2022-11-22T17:37:12.810Z,1.90
2022-11-22T17:39:40.536Z,2.47
2022-11-22T17:42:07.975Z,2.20
2022-11-22T17:44:35.156Z,2.08
2022-11-22T17:47:02.486Z,2.88
2022-11-22T17:49:29.980Z,2.50
2022-11-22T17:51:57.514Z,2.72
2022-11-22T17:54:24.720Z,2.50
2022-11-22T17:56:51.843Z,2.80
2022-11-22T17:59:18.992Z,2.75
2022-11-22T18:01:46.420Z,2.70
2022-11-22T18:04:14.821Z,2.78
2022-11-22T18:06:42.219Z,2.20
2022-11-22T18:09:09.692Z,2.40
2022-11-22T18:11:36.987Z,2.78
2022-11-22T18:14:04.318Z,3.17
2022-11-22T18:16:31.500Z,3.05
2022-11-22T18:19:00.551Z,2.78
2022-11-22T18:21:30.048Z,2.63
2022-11-22T18:24:01.855Z,3.08
2022-11-22T18:26:44.906Z,2.60
2022-11-22T18:32:01.885Z,3.13
2022-11-22T18:34:30.202Z,3.25
2022-11-22T18:37:03.114Z,3.38
2022-11-22T18:39:34.778Z,3.42
2022-11-22T18:42:02.944Z,3.17
2022-11-22T18:44:30.235Z,2.50
2022-11-22T18:46:57.459Z,2.58
2022-11-22T18:49:24.968Z,2.63
2022-11-22T18:51:52.492Z,3.30
2022-11-22T18:54:24.640Z,2.80
2022-11-22T18:56:52.272Z,2.93
2022-11-22T18:59:19.686Z,3.03
2022-11-22T19:01:47.099Z,2.83
2022-11-22T19:04:15.416Z,2.80
2022-11-22T19:06:44.119Z,2.50
2022-11-22T19:09:11.852Z,2.42
2022-11-22T19:11:39.411Z,2.75
2022-11-22T19:14:06.931Z,2.50
2022-11-22T19:16:37.319Z,2.60
2022-11-22T19:19:04.740Z,2.28
2022-11-22T19:21:32.364Z,2.60
2022-11-22T19:24:05.990Z,2.80
2022-11-22T19:26:33.269Z,2.67
2022-11-22T19:29:02.543Z,2.78
2022-11-22T19:31:31.528Z,3.15
2022-11-22T19:33:59.612Z,2.47
2022-11-22T19:36:33.210Z,3.05
2022-11-22T19:39:05.346Z,2.75
2022-11-22T19:41:33.455Z,2.50
2022-11-22T19:44:00.809Z,3.25
2022-11-22T19:46:28.410Z,3.00
2022-11-22T19:48:58.114Z,3.20
2022-11-22T19:51:30.274Z,3.25
2022-11-22T19:54:02.646Z,3.00
2022-11-22T19:56:38.104Z,3.55
2022-11-22T19:59:07.468Z,3.08
2022-11-22T20:01:35.414Z,3.30
2022-11-22T20:04:05.468Z,2.88
2022-11-22T20:06:35.697Z,2.95
2022-11-22T20:09:11.954Z,3.15
2022-11-22T20:11:40.903Z,3.22
2022-11-22T20:14:09.422Z,2.65
2022-11-22T20:16:41.179Z,3.47
2022-11-22T20:19:09.802Z,2.75
2022-11-22T20:21:38.394Z,3.13
2022-11-22T20:24:06.301Z,3.38
2022-11-22T20:26:33.930Z,3.28
2022-11-22T20:29:04.830Z,3.40
2022-11-22T20:31:33.503Z,3.80
2022-11-22T20:34:02.538Z,3.45
2022-11-22T20:36:32.931Z,3.72
2022-11-22T20:39:04.196Z,3.85
2022-11-22T20:41:34.731Z,3.60
2022-11-22T20:44:04.244Z,3.55
2022-11-22T20:46:36.748Z,3.42
2022-11-22T20:49:04.354Z,4.80
2022-11-22T20:51:31.670Z,4.88
2022-11-22T20:53:58.955Z,4.53
2022-11-22T20:56:26.418Z,5.00
2022-11-22T20:58:54.256Z,5.90
2022-11-22T21:01:23.737Z,5.47
2022-11-22T21:03:51.939Z,5.43
2022-11-22T21:06:20.855Z,6.70
2022-11-22T21:08:48.573Z,6.25
2022-11-22T21:11:21.531Z,7.25
2022-11-22T21:16:24.152Z,7.22
2022-11-22T21:18:57.215Z,7.28
2022-11-22T21:21:25.359Z,7.03
2022-11-22T21:23:54.875Z,7.40
2022-11-22T21:26:23.987Z,7.53
2022-11-22T21:28:52.516Z,7.53
2022-11-22T21:31:20.877Z,7.20
2022-11-22T21:33:48.538Z,7.63
2022-11-22T21:36:15.851Z,7.45
2022-11-22T21:38:43.170Z,7.97
2022-11-22T21:41:39.393Z,7.00
2022-11-22T21:44:05.185Z,8.25
2022-11-22T21:46:32.386Z,8.48
2022-11-22T21:48:59.620Z,8.60
2022-11-22T21:51:26.991Z,7.70
2022-11-22T21:53:58.678Z,8.40
2022-11-22T21:56:26.765Z,8.13
2022-11-22T21:58:54.283Z,8.73
2022-11-22T22:01:22.423Z,8.77
2022-11-22T22:03:49.928Z,8.80
2022-11-22T22:06:17.696Z,10.23
2022-11-22T22:08:44.948Z,9.50
2022-11-22T22:11:12.601Z,9.35
2022-11-22T22:13:39.962Z,9.70
2022-11-22T22:16:08.814Z,10.27
2022-11-22T22:18:37.567Z,10.07
2022-11-22T22:21:07.413Z,10.85
2022-11-22T22:23:35.777Z,10.73
2022-11-22T22:26:05.341Z,11.48
2022-11-22T22:28:34.225Z,10.98
2022-11-22T22:31:16.891Z,11.13
2022-11-22T22:33:45.695Z,10.25
2022-11-22T22:36:13.460Z,10.43
2022-11-22T22:38:40.830Z,10.88
2022-11-22T22:41:11.296Z,11.43
2022-11-22T22:43:43.799Z,11.70
2022-11-22T22:46:16.952Z,11.30
2022-11-22T22:48:45.038Z,11.15
2022-11-22T22:51:20.740Z,10.90
2022-11-22T22:53:48.645Z,10.90
2022-11-22T22:56:17.486Z,11.82
2022-11-22T22:58:45.395Z,11.63
2022-11-22T23:01:12.495Z,11.93
2022-11-22T23:03:39.884Z,11.20
2022-11-22T23:06:11.696Z,11.90
2022-11-22T23:08:39.488Z,11.30
2022-11-22T23:11:09.932Z,12.30
2022-11-22T23:13:39.146Z,11.55
2022-11-22T23:16:08.968Z,11.55
2022-11-22T23:18:43.030Z,11.77
2022-11-22T23:21:13.890Z,11.40
2022-11-22T23:23:41.478Z,11.15
2022-11-22T23:26:11.987Z,11.52
2022-11-22T23:28:40.311Z,10.90
2022-11-22T23:31:10.250Z,12.20
2022-11-22T23:33:38.506Z,11.10
2022-11-22T23:36:11.538Z,10.55
2022-11-22T23:38:39.288Z,10.90
2022-11-22T23:41:06.620Z,10.90
2022-11-22T23:43:34.396Z,10.82
2022-11-22T23:46:02.305Z,10.77
2022-11-22T23:48:29.717Z,11.90
2022-11-22T23:51:01.915Z,10.70
2022-11-22T23:53:29.018Z,11.35
2022-11-22T23:55:56.118Z,11.23
2022-11-22T23:58:23.236Z,12.35
